sensor_id;sensor_type;location;lat;lon;timestamp;temperature;humidity
81895;DHT22;77419;45.642;13.758;2024-03-23T00:53:54;22.30;50.80
81895;DHT22;77419;45.642;13.758;2024-03-23T00:56:38;22.30;50.80
81895;DHT22;77419;45.642;13.758;2024-03-23T00:59:23;22.30;50.80
81895;DHT22;77419;45.642;13.758;2024-03-23T01:02:11;22.30;50.80
81895;DHT22;77419;45.642;13.758;2024-03-23T01:04:55;22.30;50.80
81895;DHT22;77419;45.642;13.758;2024-03-23T01:07:40;22.30;50.70
81895;DHT22;77419;45.642;13.758;2024-03-23T01:10:25;22.30;50.80
81895;DHT22;77419;45.642;13.758;2024-03-23T01:13:09;22.30;50.80
81895;DHT22;77419;45.642;13.758;2024-03-23T01:15:55;22.30;50.80
81895;DHT22;77419;45.642;13.758;2024-03-23T01:18:39;22.30;50.80
81895;DHT22;77419;45.642;13.758;2024-03-23T01:21:24;22.30;50.80
81895;DHT22;77419;45.642;13.758;2024-03-23T01:24:08;22.30;50.80
81895;DHT22;77419;45.642;13.758;2024-03-23T01:26:54;22.30;50.80
81895;DHT22;77419;45.642;13.758;2024-03-23T01:29:39;22.30;50.80
81895;DHT22;77419;45.642;13.758;2024-03-23T01:32:23;22.30;50.80
81895;DHT22;77419;45.642;13.758;2024-03-23T01:35:08;22.30;50.90
81895;DHT22;77419;45.642;13.758;2024-03-23T01:37:52;22.30;50.90
81895;DHT22;77419;45.642;13.758;2024-03-23T01:40:37;22.30;50.90
81895;DHT22;77419;45.642;13.758;2024-03-23T01:43:21;22.30;50.90
81895;DHT22;77419;45.642;13.758;2024-03-23T01:46:06;22.30;51.00
81895;DHT22;77419;45.642;13.758;2024-03-23T01:48:51;22.30;51.00
81895;DHT22;77419;45.642;13.758;2024-03-23T01:51:36;22.30;51.00
81895;DHT22;77419;45.642;13.758;2024-03-23T01:54:22;22.30;50.90
81895;DHT22;77419;45.642;13.758;2024-03-23T01:57:07;22.30;50.80
81895;DHT22;77419;45.642;13.758;2024-03-23T01:59:51;22.30;50.80
81895;DHT22;77419;45.642;13.758;2024-03-23T02:02:45;22.30;50.70
81895;DHT22;77419;45.642;13.758;2024-03-23T02:05:29;22.30;50.60
81895;DHT22;77419;45.642;13.758;2024-03-23T02:08:14;22.20;50.50
81895;DHT22;77419;45.642;13.758;2024-03-23T02:10:59;22.20;50.30
81895;DHT22;77419;45.642;13.758;2024-03-23T02:13:43;22.20;50.40
81895;DHT22;77419;45.642;13.758;2024-03-23T02:16:27;22.20;50.40
81895;DHT22;77419;45.642;13.758;2024-03-23T02:19:12;22.20;50.50
81895;DHT22;77419;45.642;13.758;2024-03-23T02:21:56;22.20;50.50
81895;DHT22;77419;45.642;13.758;2024-03-23T02:24:40;22.20;50.50
81895;DHT22;77419;45.642;13.758;2024-03-23T02:27:25;22.20;50.50
81895;DHT22;77419;45.642;13.758;2024-03-23T02:30:10;22.20;50.50
81895;DHT22;77419;45.642;13.758;2024-03-23T02:32:54;22.20;50.50
81895;DHT22;77419;45.642;13.758;2024-03-23T02:35:39;22.20;50.50
81895;DHT22;77419;45.642;13.758;2024-03-23T02:38:23;22.20;50.50
81895;DHT22;77419;45.642;13.758;2024-03-23T02:41:08;22.20;50.50
81895;DHT22;77419;45.642;13.758;2024-03-23T02:43:53;22.20;50.40
81895;DHT22;77419;45.642;13.758;2024-03-23T02:46:38;22.20;50.30
81895;DHT22;77419;45.642;13.758;2024-03-23T02:49:22;22.20;50.30
81895;DHT22;77419;45.642;13.758;2024-03-23T02:52:07;22.20;50.30
81895;DHT22;77419;45.642;13.758;2024-03-23T02:54:51;22.20;50.30
81895;DHT22;77419;45.642;13.758;2024-03-23T02:57:35;22.20;50.40
81895;DHT22;77419;45.642;13.758;2024-03-23T03:00:20;22.20;50.40
81895;DHT22;77419;45.642;13.758;2024-03-23T03:03:05;22.20;50.40
81895;DHT22;77419;45.642;13.758;2024-03-23T03:05:55;22.20;50.40
81895;DHT22;77419;45.642;13.758;2024-03-23T03:08:39;22.20;50.40
81895;DHT22;77419;45.642;13.758;2024-03-23T03:11:23;22.20;50.40
81895;DHT22;77419;45.642;13.758;2024-03-23T03:14:08;22.20;50.40
81895;DHT22;77419;45.642;13.758;2024-03-23T03:16:53;22.20;50.40
81895;DHT22;77419;45.642;13.758;2024-03-23T03:19:37;22.20;50.40
81895;DHT22;77419;45.642;13.758;2024-03-23T03:22:22;22.20;50.30
81895;DHT22;77419;45.642;13.758;2024-03-23T03:25:07;22.20;50.30
81895;DHT22;77419;45.642;13.758;2024-03-23T03:27:51;22.20;50.20
81895;DHT22;77419;45.642;13.758;2024-03-23T03:30:36;22.20;50.30
81895;DHT22;77419;45.642;13.758;2024-03-23T03:33:20;22.10;50.30
81895;DHT22;77419;45.642;13.758;2024-03-23T03:36:05;22.20;50.30
81895;DHT22;77419;45.642;13.758;2024-03-23T03:38:49;22.20;50.40
81895;DHT22;77419;45.642;13.758;2024-03-23T03:41:34;22.20;50.40
81895;DHT22;77419;45.642;13.758;2024-03-23T03:44:18;22.10;50.30
81895;DHT22;77419;45.642;13.758;2024-03-23T03:47:03;22.10;50.30
81895;DHT22;77419;45.642;13.758;2024-03-23T03:49:47;22.20;50.30
81895;DHT22;77419;45.642;13.758;2024-03-23T03:52:32;22.10;50.20
81895;DHT22;77419;45.642;13.758;2024-03-23T03:55:16;22.10;50.10
81895;DHT22;77419;45.642;13.758;2024-03-23T03:58:00;22.10;50.10
81895;DHT22;77419;45.642;13.758;2024-03-23T04:00:45;22.10;50.10
81895;DHT22;77419;45.642;13.758;2024-03-23T04:03:29;22.10;50.00
81895;DHT22;77419;45.642;13.758;2024-03-23T04:06:19;22.10;50.00
81895;DHT22;77419;45.642;13.758;2024-03-23T04:09:03;22.20;50.10
81895;DHT22;77419;45.642;13.758;2024-03-23T04:11:47;22.10;50.10
81895;DHT22;77419;45.642;13.758;2024-03-23T04:14:32;22.10;50.10
81895;DHT22;77419;45.642;13.758;2024-03-23T04:17:17;22.10;50.10
81895;DHT22;77419;45.642;13.758;2024-03-23T04:20:02;22.10;50.00
81895;DHT22;77419;45.642;13.758;2024-03-23T04:22:48;22.10;50.00
81895;DHT22;77419;45.642;13.758;2024-03-23T04:25:32;22.10;50.00
81895;DHT22;77419;45.642;13.758;2024-03-23T04:28:17;22.10;50.20
81895;DHT22;77419;45.642;13.758;2024-03-23T04:31:04;22.10;50.20
81895;DHT22;77419;45.642;13.758;2024-03-23T04:33:50;22.10;50.30
81895;DHT22;77419;45.642;13.758;2024-03-23T04:36:34;22.10;50.30
81895;DHT22;77419;45.642;13.758;2024-03-23T04:39:19;22.10;50.30
81895;DHT22;77419;45.642;13.758;2024-03-23T04:42:04;22.10;50.30
81895;DHT22;77419;45.642;13.758;2024-03-23T04:44:48;22.10;50.30
81895;DHT22;77419;45.642;13.758;2024-03-23T04:47:33;22.10;50.30
81895;DHT22;77419;45.642;13.758;2024-03-23T04:50:21;22.10;50.30
81895;DHT22;77419;45.642;13.758;2024-03-23T04:53:05;22.10;50.30
81895;DHT22;77419;45.642;13.758;2024-03-23T04:55:50;22.10;50.30
81895;DHT22;77419;45.642;13.758;2024-03-23T04:58:34;22.10;50.30
81895;DHT22;77419;45.642;13.758;2024-03-23T05:01:19;22.10;50.30
81895;DHT22;77419;45.642;13.758;2024-03-23T05:04:03;22.10;50.30
81895;DHT22;77419;45.642;13.758;2024-03-23T05:06:48;22.10;50.30
81895;DHT22;77419;45.642;13.758;2024-03-23T05:09:33;22.10;50.40
81895;DHT22;77419;45.642;13.758;2024-03-23T05:12:17;22.10;50.40
81895;DHT22;77419;45.642;13.758;2024-03-23T05:15:01;22.10;50.40
81895;DHT22;77419;45.642;13.758;2024-03-23T05:17:47;22.10;50.40
81895;DHT22;77419;45.642;13.758;2024-03-23T05:20:31;22.10;50.50
81895;DHT22;77419;45.642;13.758;2024-03-23T05:23:16;22.10;50.50
81895;DHT22;77419;45.642;13.758;2024-03-23T05:26:01;22.10;50.50
81895;DHT22;77419;45.642;13.758;2024-03-23T05:28:46;22.10;50.60
81895;DHT22;77419;45.642;13.758;2024-03-23T05:31:31;22.10;50.50
81895;DHT22;77419;45.642;13.758;2024-03-23T05:34:15;22.10;50.60
81895;DHT22;77419;45.642;13.758;2024-03-23T05:37:00;22.10;50.60
81895;DHT22;77419;45.642;13.758;2024-03-23T05:39:44;22.10;50.50
81895;DHT22;77419;45.642;13.758;2024-03-23T05:42:28;22.10;50.50
81895;DHT22;77419;45.642;13.758;2024-03-23T05:45:13;22.10;50.60
81895;DHT22;77419;45.642;13.758;2024-03-23T05:47:58;22.10;50.60
81895;DHT22;77419;45.642;13.758;2024-03-23T05:50:42;22.10;50.60
81895;DHT22;77419;45.642;13.758;2024-03-23T05:53:27;22.10;50.60
81895;DHT22;77419;45.642;13.758;2024-03-23T05:56:12;22.10;50.60
81895;DHT22;77419;45.642;13.758;2024-03-23T05:58:56;22.10;50.60
81895;DHT22;77419;45.642;13.758;2024-03-23T06:01:40;22.10;50.60
81895;DHT22;77419;45.642;13.758;2024-03-23T06:04:25;22.10;50.60
81895;DHT22;77419;45.642;13.758;2024-03-23T06:07:10;22.10;50.60
81895;DHT22;77419;45.642;13.758;2024-03-23T06:09:58;22.10;50.60
81895;DHT22;77419;45.642;13.758;2024-03-23T06:12:42;22.10;50.60
81895;DHT22;77419;45.642;13.758;2024-03-23T06:15:27;22.10;50.60
81895;DHT22;77419;45.642;13.758;2024-03-23T06:18:11;22.10;50.60
81895;DHT22;77419;45.642;13.758;2024-03-23T06:20:56;22.10;50.70
81895;DHT22;77419;45.642;13.758;2024-03-23T06:23:41;22.10;50.70
81895;DHT22;77419;45.642;13.758;2024-03-23T06:26:25;22.10;50.60
81895;DHT22;77419;45.642;13.758;2024-03-23T06:29:10;22.10;50.60
81895;DHT22;77419;45.642;13.758;2024-03-23T06:31:54;22.10;51.00
81895;DHT22;77419;45.642;13.758;2024-03-23T06:34:41;22.10;50.60
81895;DHT22;77419;45.642;13.758;2024-03-23T06:37:26;22.00;50.60
81895;DHT22;77419;45.642;13.758;2024-03-23T06:40:12;22.10;50.60
81895;DHT22;77419;45.642;13.758;2024-03-23T06:42:57;22.10;50.60
81895;DHT22;77419;45.642;13.758;2024-03-23T06:45:41;22.10;50.60
81895;DHT22;77419;45.642;13.758;2024-03-23T06:48:26;22.10;50.60
81895;DHT22;77419;45.642;13.758;2024-03-23T06:51:10;22.10;50.60
81895;DHT22;77419;45.642;13.758;2024-03-23T06:53:55;22.10;50.50
81895;DHT22;77419;45.642;13.758;2024-03-23T06:56:39;22.00;50.50
81895;DHT22;77419;45.642;13.758;2024-03-23T06:59:24;22.10;50.50
81895;DHT22;77419;45.642;13.758;2024-03-23T07:02:09;22.10;50.50
81895;DHT22;77419;45.642;13.758;2024-03-23T07:04:52;22.10;51.10
81895;DHT22;77419;45.642;13.758;2024-03-23T07:07:38;22.10;50.50
81895;DHT22;77419;45.642;13.758;2024-03-23T07:10:23;22.10;50.50
81895;DHT22;77419;45.642;13.758;2024-03-23T07:13:07;22.10;50.50
81895;DHT22;77419;45.642;13.758;2024-03-23T07:15:52;22.10;50.90
81895;DHT22;77419;45.642;13.758;2024-03-23T07:18:37;22.10;50.60
81895;DHT22;77419;45.642;13.758;2024-03-23T07:21:21;22.10;50.60
81895;DHT22;77419;45.642;13.758;2024-03-23T07:24:06;22.10;50.60
81895;DHT22;77419;45.642;13.758;2024-03-23T07:26:50;22.10;50.60
81895;DHT22;77419;45.642;13.758;2024-03-23T07:29:36;22.10;50.60
81895;DHT22;77419;45.642;13.758;2024-03-23T07:32:21;22.10;50.60
81895;DHT22;77419;45.642;13.758;2024-03-23T07:35:05;22.10;50.50
81895;DHT22;77419;45.642;13.758;2024-03-23T07:37:50;22.10;50.50
81895;DHT22;77419;45.642;13.758;2024-03-23T07:40:34;22.10;50.40
81895;DHT22;77419;45.642;13.758;2024-03-23T07:43:19;22.10;49.70
81895;DHT22;77419;45.642;13.758;2024-03-23T07:46:04;22.10;49.00
81895;DHT22;77419;45.642;13.758;2024-03-23T07:48:49;22.00;49.20
81895;DHT22;77419;45.642;13.758;2024-03-23T07:51:33;22.10;48.20
81895;DHT22;77419;45.642;13.758;2024-03-23T07:54:19;22.10;47.70
81895;DHT22;77419;45.642;13.758;2024-03-23T07:57:03;22.10;47.40
81895;DHT22;77419;45.642;13.758;2024-03-23T07:59:48;22.10;47.40
81895;DHT22;77419;45.642;13.758;2024-03-23T08:02:33;22.00;47.30
81895;DHT22;77419;45.642;13.758;2024-03-23T08:05:17;22.00;47.10
81895;DHT22;77419;45.642;13.758;2024-03-23T08:08:02;22.00;46.80
81895;DHT22;77419;45.642;13.758;2024-03-23T08:10:51;22.00;46.60
81895;DHT22;77419;45.642;13.758;2024-03-23T08:13:38;22.00;46.50
81895;DHT22;77419;45.642;13.758;2024-03-23T08:16:23;22.00;46.60
81895;DHT22;77419;45.642;13.758;2024-03-23T08:19:07;22.00;47.00
81895;DHT22;77419;45.642;13.758;2024-03-23T08:21:52;22.00;47.50
81895;DHT22;77419;45.642;13.758;2024-03-23T08:24:38;22.00;47.60
81895;DHT22;77419;45.642;13.758;2024-03-23T08:27:22;22.00;47.40
81895;DHT22;77419;45.642;13.758;2024-03-23T08:30:07;22.00;47.10
81895;DHT22;77419;45.642;13.758;2024-03-23T08:32:51;22.00;47.00
81895;DHT22;77419;45.642;13.758;2024-03-23T08:35:36;22.00;47.00
81895;DHT22;77419;45.642;13.758;2024-03-23T08:38:20;22.00;47.10
81895;DHT22;77419;45.642;13.758;2024-03-23T08:41:06;22.00;47.40
81895;DHT22;77419;45.642;13.758;2024-03-23T08:43:52;22.00;47.40
81895;DHT22;77419;45.642;13.758;2024-03-23T08:46:36;22.00;47.60
81895;DHT22;77419;45.642;13.758;2024-03-23T08:49:20;22.00;47.60
81895;DHT22;77419;45.642;13.758;2024-03-23T08:52:05;22.00;47.30
81895;DHT22;77419;45.642;13.758;2024-03-23T08:54:50;22.00;47.30
81895;DHT22;77419;45.642;13.758;2024-03-23T08:57:34;22.00;46.70
81895;DHT22;77419;45.642;13.758;2024-03-23T09:00:18;22.00;46.00
81895;DHT22;77419;45.642;13.758;2024-03-23T09:03:03;21.90;46.70
81895;DHT22;77419;45.642;13.758;2024-03-23T09:05:49;21.90;46.70
81895;DHT22;77419;45.642;13.758;2024-03-23T09:08:33;21.80;46.10
81895;DHT22;77419;45.642;13.758;2024-03-23T09:11:19;21.80;46.40
81895;DHT22;77419;45.642;13.758;2024-03-23T09:14:04;21.70;46.90
81895;DHT22;77419;45.642;13.758;2024-03-23T09:16:51;21.70;46.90
81895;DHT22;77419;45.642;13.758;2024-03-23T09:19:36;21.70;46.60
81895;DHT22;77419;45.642;13.758;2024-03-23T09:22:20;21.60;46.70
81895;DHT22;77419;45.642;13.758;2024-03-23T09:25:04;21.50;46.70
81895;DHT22;77419;45.642;13.758;2024-03-23T09:27:50;21.50;46.30
81895;DHT22;77419;45.642;13.758;2024-03-23T09:30:35;21.40;46.20
81895;DHT22;77419;45.642;13.758;2024-03-23T09:33:20;21.40;46.30
81895;DHT22;77419;45.642;13.758;2024-03-23T09:36:05;21.30;46.50
81895;DHT22;77419;45.642;13.758;2024-03-23T09:38:49;21.30;47.40
81895;DHT22;77419;45.642;13.758;2024-03-23T09:41:34;21.30;46.40
81895;DHT22;77419;45.642;13.758;2024-03-23T09:44:18;21.20;45.90
81895;DHT22;77419;45.642;13.758;2024-03-23T09:47:03;21.20;46.00
81895;DHT22;77419;45.642;13.758;2024-03-23T09:49:47;21.20;46.60
81895;DHT22;77419;45.642;13.758;2024-03-23T09:52:32;21.10;47.30
81895;DHT22;77419;45.642;13.758;2024-03-23T09:55:16;21.10;47.90
81895;DHT22;77419;45.642;13.758;2024-03-23T09:58:02;21.10;48.50
81895;DHT22;77419;45.642;13.758;2024-03-23T10:00:46;21.10;48.40
81895;DHT22;77419;45.642;13.758;2024-03-23T10:03:31;21.00;48.20
81895;DHT22;77419;45.642;13.758;2024-03-23T10:06:21;21.00;48.20
81895;DHT22;77419;45.642;13.758;2024-03-23T10:09:16;21.00;48.20
81895;DHT22;77419;45.642;13.758;2024-03-23T10:12:13;21.00;48.60
81895;DHT22;77419;45.642;13.758;2024-03-23T10:14:58;21.00;48.80
81895;DHT22;77419;45.642;13.758;2024-03-23T10:17:42;20.90;49.10
81895;DHT22;77419;45.642;13.758;2024-03-23T10:20:28;20.90;49.60
81895;DHT22;77419;45.642;13.758;2024-03-23T10:23:16;20.90;50.50
81895;DHT22;77419;45.642;13.758;2024-03-23T10:26:22;20.80;51.40
81895;DHT22;77419;45.642;13.758;2024-03-23T10:29:06;20.90;52.20
81895;DHT22;77419;45.642;13.758;2024-03-23T10:32:10;20.80;52.30
81895;DHT22;77419;45.642;13.758;2024-03-23T10:34:55;20.80;51.90
81895;DHT22;77419;45.642;13.758;2024-03-23T10:37:39;20.80;52.10
81895;DHT22;77419;45.642;13.758;2024-03-23T10:40:24;20.80;51.20
81895;DHT22;77419;45.642;13.758;2024-03-23T10:43:09;20.80;51.50
81895;DHT22;77419;45.642;13.758;2024-03-23T10:45:54;20.70;51.70
81895;DHT22;77419;45.642;13.758;2024-03-23T10:48:39;20.70;51.90
81895;DHT22;77419;45.642;13.758;2024-03-23T10:51:23;20.70;52.50
81895;DHT22;77419;45.642;13.758;2024-03-23T10:54:08;20.80;54.00
81895;DHT22;77419;45.642;13.758;2024-03-23T10:57:06;20.90;55.20
81895;DHT22;77419;45.642;13.758;2024-03-23T10:59:52;21.00;55.60
81895;DHT22;77419;45.642;13.758;2024-03-23T11:02:38;21.10;55.30
81895;DHT22;77419;45.642;13.758;2024-03-23T11:08:30;21.30;54.80
81895;DHT22;77419;45.642;13.758;2024-03-23T11:11:21;21.30;54.50
81895;DHT22;77419;45.642;13.758;2024-03-23T11:14:22;21.30;54.30
81895;DHT22;77419;45.642;13.758;2024-03-23T11:17:10;21.40;54.20
81895;DHT22;77419;45.642;13.758;2024-03-23T11:20:02;21.40;54.10
81895;DHT22;77419;45.642;13.758;2024-03-23T11:22:47;21.50;54.70
81895;DHT22;77419;45.642;13.758;2024-03-23T11:25:33;21.50;54.90
81895;DHT22;77419;45.642;13.758;2024-03-23T11:28:17;21.60;55.10
81895;DHT22;77419;45.642;13.758;2024-03-23T11:31:09;21.60;55.20
81895;DHT22;77419;45.642;13.758;2024-03-23T11:34:06;21.60;55.20
81895;DHT22;77419;45.642;13.758;2024-03-23T11:36:50;21.70;55.00
81895;DHT22;77419;45.642;13.758;2024-03-23T11:39:46;21.70;54.90
81895;DHT22;77419;45.642;13.758;2024-03-23T11:42:33;21.80;54.80
81895;DHT22;77419;45.642;13.758;2024-03-23T11:45:18;21.80;54.60
81895;DHT22;77419;45.642;13.758;2024-03-23T11:50:55;21.90;54.50
81895;DHT22;77419;45.642;13.758;2024-03-23T11:53:39;21.90;54.20
81895;DHT22;77419;45.642;13.758;2024-03-23T11:56:24;21.90;54.10
81895;DHT22;77419;45.642;13.758;2024-03-23T11:59:08;21.90;54.10
81895;DHT22;77419;45.642;13.758;2024-03-23T12:01:53;21.90;54.10
81895;DHT22;77419;45.642;13.758;2024-03-23T12:04:38;21.80;53.90
81895;DHT22;77419;45.642;13.758;2024-03-23T12:07:24;21.90;53.80
81895;DHT22;77419;45.642;13.758;2024-03-23T12:10:08;21.80;53.70
81895;DHT22;77419;45.642;13.758;2024-03-23T12:13:00;21.80;53.70
81895;DHT22;77419;45.642;13.758;2024-03-23T12:15:46;21.80;53.70
81895;DHT22;77419;45.642;13.758;2024-03-23T12:18:30;21.80;53.60
81895;DHT22;77419;45.642;13.758;2024-03-23T12:21:15;21.80;54.00
81895;DHT22;77419;45.642;13.758;2024-03-23T12:24:01;21.80;54.40
81895;DHT22;77419;45.642;13.758;2024-03-23T12:26:45;21.80;54.50
81895;DHT22;77419;45.642;13.758;2024-03-23T12:29:32;21.70;54.60
81895;DHT22;77419;45.642;13.758;2024-03-23T12:32:16;21.80;54.60
81895;DHT22;77419;45.642;13.758;2024-03-23T12:35:01;21.80;54.60
81895;DHT22;77419;45.642;13.758;2024-03-23T12:37:45;21.80;54.60
81895;DHT22;77419;45.642;13.758;2024-03-23T12:40:30;21.80;54.60
81895;DHT22;77419;45.642;13.758;2024-03-23T12:43:15;21.80;54.60
81895;DHT22;77419;45.642;13.758;2024-03-23T12:45:59;21.80;54.70
81895;DHT22;77419;45.642;13.758;2024-03-23T12:48:45;21.80;54.60
81895;DHT22;77419;45.642;13.758;2024-03-23T12:51:29;21.80;54.60
81895;DHT22;77419;45.642;13.758;2024-03-23T12:54:13;21.80;54.60
81895;DHT22;77419;45.642;13.758;2024-03-23T12:56:58;21.80;54.80
81895;DHT22;77419;45.642;13.758;2024-03-23T12:59:43;21.80;55.00
81895;DHT22;77419;45.642;13.758;2024-03-23T13:02:27;21.80;55.20
81895;DHT22;77419;45.642;13.758;2024-03-23T13:05:12;21.80;55.10
81895;DHT22;77419;45.642;13.758;2024-03-23T13:07:56;21.80;55.10
81895;DHT22;77419;45.642;13.758;2024-03-23T13:10:41;21.80;55.00
81895;DHT22;77419;45.642;13.758;2024-03-23T13:13:25;21.90;55.00
81895;DHT22;77419;45.642;13.758;2024-03-23T13:16:10;21.80;54.90
81895;DHT22;77419;45.642;13.758;2024-03-23T13:18:54;21.90;55.00
81895;DHT22;77419;45.642;13.758;2024-03-23T13:21:40;21.90;54.90
81895;DHT22;77419;45.642;13.758;2024-03-23T13:24:25;21.90;55.70
81895;DHT22;77419;45.642;13.758;2024-03-23T13:27:10;21.90;55.00
81895;DHT22;77419;45.642;13.758;2024-03-23T13:29:54;21.90;54.90
81895;DHT22;77419;45.642;13.758;2024-03-23T13:32:39;21.90;55.00
81895;DHT22;77419;45.642;13.758;2024-03-23T13:35:23;21.90;54.90
81895;DHT22;77419;45.642;13.758;2024-03-23T13:38:07;21.90;54.90
81895;DHT22;77419;45.642;13.758;2024-03-23T13:40:56;21.90;54.80
81895;DHT22;77419;45.642;13.758;2024-03-23T13:43:41;21.90;54.80
81895;DHT22;77419;45.642;13.758;2024-03-23T13:46:26;21.90;54.80
81895;DHT22;77419;45.642;13.758;2024-03-23T13:49:29;21.90;54.90
81895;DHT22;77419;45.642;13.758;2024-03-23T13:52:14;22.00;54.80
81895;DHT22;77419;45.642;13.758;2024-03-23T13:54:59;21.90;55.50
81895;DHT22;77419;45.642;13.758;2024-03-23T13:57:43;21.90;57.80
81895;DHT22;77419;45.642;13.758;2024-03-23T14:00:28;21.90;57.60
81895;DHT22;77419;45.642;13.758;2024-03-23T14:03:14;21.80;57.00
81895;DHT22;77419;45.642;13.758;2024-03-23T14:05:58;21.80;57.20
81895;DHT22;77419;45.642;13.758;2024-03-23T14:08:45;21.80;57.20
81895;DHT22;77419;45.642;13.758;2024-03-23T14:11:30;21.80;57.20
81895;DHT22;77419;45.642;13.758;2024-03-23T14:14:14;21.80;57.20
81895;DHT22;77419;45.642;13.758;2024-03-23T14:17:01;21.80;57.10
81895;DHT22;77419;45.642;13.758;2024-03-23T14:19:46;21.90;57.00
81895;DHT22;77419;45.642;13.758;2024-03-23T14:22:30;21.90;56.90
81895;DHT22;77419;45.642;13.758;2024-03-23T14:25:14;21.90;56.90
81895;DHT22;77419;45.642;13.758;2024-03-23T14:27:58;21.90;56.80
81895;DHT22;77419;45.642;13.758;2024-03-23T14:30:42;21.90;56.70
81895;DHT22;77419;45.642;13.758;2024-03-23T14:33:27;22.00;56.60
81895;DHT22;77419;45.642;13.758;2024-03-23T14:36:11;22.00;56.60
81895;DHT22;77419;45.642;13.758;2024-03-23T14:38:55;22.00;56.60
81895;DHT22;77419;45.642;13.758;2024-03-23T14:41:40;22.00;56.50
81895;DHT22;77419;45.642;13.758;2024-03-23T14:44:24;22.00;56.40
81895;DHT22;77419;45.642;13.758;2024-03-23T14:47:09;22.00;56.30
81895;DHT22;77419;45.642;13.758;2024-03-23T14:49:53;22.00;56.20
81895;DHT22;77419;45.642;13.758;2024-03-23T14:52:38;22.00;56.10
81895;DHT22;77419;45.642;13.758;2024-03-23T14:55:23;22.00;55.90
81895;DHT22;77419;45.642;13.758;2024-03-23T14:58:08;22.00;55.70
81895;DHT22;77419;45.642;13.758;2024-03-23T15:00:52;22.00;55.60
81895;DHT22;77419;45.642;13.758;2024-03-23T15:03:37;22.00;55.40
81895;DHT22;77419;45.642;13.758;2024-03-23T15:06:23;22.00;55.30
81895;DHT22;77419;45.642;13.758;2024-03-23T15:09:08;22.00;55.10
81895;DHT22;77419;45.642;13.758;2024-03-23T15:11:54;22.00;55.60
81895;DHT22;77419;45.642;13.758;2024-03-23T15:14:39;22.00;54.80
81895;DHT22;77419;45.642;13.758;2024-03-23T15:17:24;22.10;54.70
81895;DHT22;77419;45.642;13.758;2024-03-23T15:20:08;22.00;54.40
81895;DHT22;77419;45.642;13.758;2024-03-23T15:22:54;22.10;54.20
81895;DHT22;77419;45.642;13.758;2024-03-23T15:25:38;22.10;54.10
81895;DHT22;77419;45.642;13.758;2024-03-23T15:28:23;22.10;54.00
81895;DHT22;77419;45.642;13.758;2024-03-23T15:31:12;22.10;53.90
81895;DHT22;77419;45.642;13.758;2024-03-23T15:34:04;22.10;53.90
81895;DHT22;77419;45.642;13.758;2024-03-23T15:36:49;22.10;53.60
81895;DHT22;77419;45.642;13.758;2024-03-23T15:39:34;22.00;53.40
81895;DHT22;77419;45.642;13.758;2024-03-23T15:42:18;22.00;53.40
81895;DHT22;77419;45.642;13.758;2024-03-23T15:45:06;22.00;53.40
81895;DHT22;77419;45.642;13.758;2024-03-23T15:47:51;22.00;53.60
81895;DHT22;77419;45.642;13.758;2024-03-23T15:50:36;22.00;53.70
81895;DHT22;77419;45.642;13.758;2024-03-23T15:53:21;22.00;53.80
81895;DHT22;77419;45.642;13.758;2024-03-23T15:56:06;22.10;54.10
81895;DHT22;77419;45.642;13.758;2024-03-23T15:58:50;22.00;54.10
81895;DHT22;77419;45.642;13.758;2024-03-23T16:01:34;22.00;54.20
81895;DHT22;77419;45.642;13.758;2024-03-23T16:04:18;22.00;54.30
81895;DHT22;77419;45.642;13.758;2024-03-23T16:07:03;22.10;54.40
81895;DHT22;77419;45.642;13.758;2024-03-23T16:09:48;22.10;54.50
81895;DHT22;77419;45.642;13.758;2024-03-23T16:12:32;22.10;54.50
81895;DHT22;77419;45.642;13.758;2024-03-23T16:15:17;22.10;54.50
81895;DHT22;77419;45.642;13.758;2024-03-23T16:18:01;22.00;54.50
81895;DHT22;77419;45.642;13.758;2024-03-23T16:20:53;22.00;54.50
81895;DHT22;77419;45.642;13.758;2024-03-23T16:23:38;22.10;54.50
81895;DHT22;77419;45.642;13.758;2024-03-23T16:26:24;22.00;54.40
81895;DHT22;77419;45.642;13.758;2024-03-23T16:29:08;22.00;54.40
81895;DHT22;77419;45.642;13.758;2024-03-23T16:31:54;22.00;54.40
81895;DHT22;77419;45.642;13.758;2024-03-23T16:34:39;22.10;54.30
81895;DHT22;77419;45.642;13.758;2024-03-23T16:37:23;22.10;54.30
81895;DHT22;77419;45.642;13.758;2024-03-23T16:40:08;22.00;54.20
81895;DHT22;77419;45.642;13.758;2024-03-23T16:42:56;22.10;54.30
81895;DHT22;77419;45.642;13.758;2024-03-23T16:45:40;22.00;54.20
81895;DHT22;77419;45.642;13.758;2024-03-23T16:48:25;22.10;54.30
81895;DHT22;77419;45.642;13.758;2024-03-23T16:51:11;22.00;54.20
81895;DHT22;77419;45.642;13.758;2024-03-23T16:53:55;22.10;54.10
81895;DHT22;77419;45.642;13.758;2024-03-23T16:56:43;22.10;54.00
81895;DHT22;77419;45.642;13.758;2024-03-23T16:59:28;22.10;53.90
81895;DHT22;77419;45.642;13.758;2024-03-23T17:02:12;22.10;53.80
81895;DHT22;77419;45.642;13.758;2024-03-23T17:04:57;22.10;53.60
81895;DHT22;77419;45.642;13.758;2024-03-23T17:07:41;22.10;53.50
81895;DHT22;77419;45.642;13.758;2024-03-23T17:10:28;22.10;53.50
81895;DHT22;77419;45.642;13.758;2024-03-23T17:13:13;22.10;53.40
81895;DHT22;77419;45.642;13.758;2024-03-23T17:15:57;22.10;53.40
81895;DHT22;77419;45.642;13.758;2024-03-23T17:18:42;22.10;53.30
81895;DHT22;77419;45.642;13.758;2024-03-23T17:21:27;22.10;53.30
81895;DHT22;77419;45.642;13.758;2024-03-23T17:24:14;22.10;53.80
81895;DHT22;77419;45.642;13.758;2024-03-23T17:26:58;22.10;53.10
81895;DHT22;77419;45.642;13.758;2024-03-23T17:29:43;22.10;53.10
81895;DHT22;77419;45.642;13.758;2024-03-23T17:32:28;22.10;53.00
81895;DHT22;77419;45.642;13.758;2024-03-23T17:35:13;22.10;52.90
81895;DHT22;77419;45.642;13.758;2024-03-23T17:37:58;22.10;52.80
81895;DHT22;77419;45.642;13.758;2024-03-23T17:40:42;22.10;52.90
81895;DHT22;77419;45.642;13.758;2024-03-23T17:43:27;22.20;52.90
81895;DHT22;77419;45.642;13.758;2024-03-23T17:46:11;22.20;53.00
81895;DHT22;77419;45.642;13.758;2024-03-23T17:48:56;22.20;52.90
81895;DHT22;77419;45.642;13.758;2024-03-23T17:51:43;22.20;52.90
81895;DHT22;77419;45.642;13.758;2024-03-23T17:54:30;22.20;52.90
81895;DHT22;77419;45.642;13.758;2024-03-23T17:57:14;22.20;52.90
81895;DHT22;77419;45.642;13.758;2024-03-23T17:59:58;22.30;53.00
81895;DHT22;77419;45.642;13.758;2024-03-23T18:02:43;22.30;53.00
81895;DHT22;77419;45.642;13.758;2024-03-23T18:05:27;22.30;53.00